sensor_id;sensor_type;location;lat;lon;timestamp;pressure;altitude;pressure_sealevel;temperature;humidity
6128;BME280;7073;42.672;23.256;2022-07-23T00:01:28;94661.72;;;22.19;56.54
6128;BME280;7073;42.672;23.256;2022-07-23T00:03:55;94665.66;;;21.93;56.38
6128;BME280;7073;42.672;23.256;2022-07-23T00:06:24;94663.63;;;21.75;56.54
6128;BME280;7073;42.672;23.256;2022-07-23T00:08:51;94665.28;;;21.66;56.98
6128;BME280;7073;42.672;23.256;2022-07-23T00:11:18;94666.94;;;21.57;57.03
6128;BME280;7073;42.672;23.256;2022-07-23T00:13:45;94675.50;;;21.82;55.39
6128;BME280;7073;42.672;23.256;2022-07-23T00:16:12;94674.97;;;21.85;56.17
6128;BME280;7073;42.672;23.256;2022-07-23T00:18:39;94668.94;;;21.75;56.80
6128;BME280;7073;42.672;23.256;2022-07-23T00:21:06;94674.53;;;21.68;58.61
6128;BME280;7073;42.672;23.256;2022-07-23T00:23:35;94672.69;;;21.69;59.23
6128;BME280;7073;42.672;23.256;2022-07-23T00:26:01;94674.78;;;21.72;60.23
6128;BME280;7073;42.672;23.256;2022-07-23T00:28:28;94673.88;;;21.48;61.14
6128;BME280;7073;42.672;23.256;2022-07-23T00:30:55;94675.38;;;21.64;60.02
6128;BME280;7073;42.672;23.256;2022-07-23T00:33:22;94680.94;;;21.67;58.04
6128;BME280;7073;42.672;23.256;2022-07-23T00:35:49;94689.41;;;21.69;57.70
6128;BME280;7073;42.672;23.256;2022-07-23T00:38:15;94674.75;;;21.38;59.03
6128;BME280;7073;42.672;23.256;2022-07-23T00:40:44;94669.84;;;21.11;59.91
6128;BME280;7073;42.672;23.256;2022-07-23T00:43:10;94670.03;;;21.30;58.77
6128;BME280;7073;42.672;23.256;2022-07-23T00:45:37;94680.28;;;21.42;58.68
6128;BME280;7073;42.672;23.256;2022-07-23T00:48:04;94677.13;;;21.40;59.90
6128;BME280;7073;42.672;23.256;2022-07-23T00:50:31;94679.63;;;21.65;60.19
6128;BME280;7073;42.672;23.256;2022-07-23T00:52:58;94670.38;;;21.57;61.06
6128;BME280;7073;42.672;23.256;2022-07-23T00:55:25;94678.06;;;21.15;62.60
6128;BME280;7073;42.672;23.256;2022-07-23T00:57:53;94666.09;;;21.22;62.90
6128;BME280;7073;42.672;23.256;2022-07-23T01:00:22;94677.72;;;21.26;61.69
6128;BME280;7073;42.672;23.256;2022-07-23T01:02:48;94664.28;;;21.03;61.14
6128;BME280;7073;42.672;23.256;2022-07-23T01:05:16;94672.00;;;20.94;61.41
6128;BME280;7073;42.672;23.256;2022-07-23T01:07:47;94671.88;;;20.55;62.63
6128;BME280;7073;42.672;23.256;2022-07-23T01:10:14;94665.56;;;20.31;62.84
6128;BME280;7073;42.672;23.256;2022-07-23T01:13:03;94649.94;;;20.35;62.94
6128;BME280;7073;42.672;23.256;2022-07-23T01:15:30;94666.00;;;20.73;62.25
6128;BME280;7073;42.672;23.256;2022-07-23T01:17:58;94650.16;;;20.58;64.29
6128;BME280;7073;42.672;23.256;2022-07-23T01:20:25;94660.56;;;20.30;66.83
6128;BME280;7073;42.672;23.256;2022-07-23T01:22:53;94658.94;;;20.34;67.21
6128;BME280;7073;42.672;23.256;2022-07-23T01:25:20;94665.78;;;20.55;65.72
6128;BME280;7073;42.672;23.256;2022-07-23T01:27:47;94666.81;;;20.69;65.26
6128;BME280;7073;42.672;23.256;2022-07-23T01:30:15;94668.19;;;20.56;64.52
6128;BME280;7073;42.672;23.256;2022-07-23T01:32:42;94654.69;;;20.48;65.72
6128;BME280;7073;42.672;23.256;2022-07-23T01:35:09;94661.03;;;20.57;65.54
6128;BME280;7073;42.672;23.256;2022-07-23T01:37:36;94658.72;;;20.30;65.90
6128;BME280;7073;42.672;23.256;2022-07-23T01:40:06;94659.47;;;20.15;67.11
6128;BME280;7073;42.672;23.256;2022-07-23T01:42:33;94668.22;;;20.01;65.82
6128;BME280;7073;42.672;23.256;2022-07-23T01:45:02;94665.31;;;19.87;66.26
6128;BME280;7073;42.672;23.256;2022-07-23T01:47:29;94665.84;;;19.94;65.45
6128;BME280;7073;42.672;23.256;2022-07-23T01:49:56;94661.59;;;20.13;66.09
6128;BME280;7073;42.672;23.256;2022-07-23T01:52:23;94660.03;;;20.28;66.45
6128;BME280;7073;42.672;23.256;2022-07-23T01:54:50;94661.06;;;20.17;67.48
6128;BME280;7073;42.672;23.256;2022-07-23T01:57:18;94663.72;;;20.06;68.22
6128;BME280;7073;42.672;23.256;2022-07-23T01:59:45;94664.78;;;20.00;67.78
6128;BME280;7073;42.672;23.256;2022-07-23T02:02:11;94648.38;;;19.78;67.89
6128;BME280;7073;42.672;23.256;2022-07-23T02:04:38;94662.41;;;19.74;67.97
6128;BME280;7073;42.672;23.256;2022-07-23T02:07:05;94664.75;;;19.60;68.92
6128;BME280;7073;42.672;23.256;2022-07-23T02:09:33;94669.25;;;19.49;69.22
6128;BME280;7073;42.672;23.256;2022-07-23T02:12:00;94657.88;;;19.44;69.63
6128;BME280;7073;42.672;23.256;2022-07-23T02:14:28;94659.75;;;19.43;69.82
6128;BME280;7073;42.672;23.256;2022-07-23T02:16:55;94665.03;;;19.43;68.99
6128;BME280;7073;42.672;23.256;2022-07-23T02:19:22;94663.97;;;19.49;68.49
6128;BME280;7073;42.672;23.256;2022-07-23T02:21:49;94662.16;;;19.75;67.36
6128;BME280;7073;42.672;23.256;2022-07-23T02:24:16;94656.34;;;19.93;65.35
6128;BME280;7073;42.672;23.256;2022-07-23T02:26:42;94659.47;;;20.10;64.87
6128;BME280;7073;42.672;23.256;2022-07-23T02:29:09;94661.59;;;20.19;65.30
6128;BME280;7073;42.672;23.256;2022-07-23T02:31:38;94664.00;;;20.25;64.25
6128;BME280;7073;42.672;23.256;2022-07-23T02:34:04;94656.84;;;19.95;65.94
6128;BME280;7073;42.672;23.256;2022-07-23T02:36:32;94655.00;;;19.81;66.25
6128;BME280;7073;42.672;23.256;2022-07-23T02:38:59;94663.72;;;20.06;66.46
6128;BME280;7073;42.672;23.256;2022-07-23T02:41:26;94667.97;;;19.82;66.14
6128;BME280;7073;42.672;23.256;2022-07-23T02:43:53;94665.31;;;19.92;64.51
6128;BME280;7073;42.672;23.256;2022-07-23T02:46:19;94667.41;;;20.15;64.77
6128;BME280;7073;42.672;23.256;2022-07-23T02:48:48;94669.81;;;20.27;64.86
6128;BME280;7073;42.672;23.256;2022-07-23T02:51:15;94673.75;;;20.40;64.50
6128;BME280;7073;42.672;23.256;2022-07-23T02:53:41;94669.78;;;20.42;64.29
6128;BME280;7073;42.672;23.256;2022-07-23T02:56:08;94677.94;;;20.61;63.31
6128;BME280;7073;42.672;23.256;2022-07-23T02:58:35;94676.09;;;20.61;62.55
6128;BME280;7073;42.672;23.256;2022-07-23T03:01:02;94682.19;;;20.62;61.26
6128;BME280;7073;42.672;23.256;2022-07-23T03:03:29;94684.28;;;20.70;60.03
6128;BME280;7073;42.672;23.256;2022-07-23T03:05:57;94689.03;;;20.73;59.75
6128;BME280;7073;42.672;23.256;2022-07-23T03:08:24;94694.56;;;20.87;59.00
6128;BME280;7073;42.672;23.256;2022-07-23T03:10:50;94690.53;;;20.94;57.91
6128;BME280;7073;42.672;23.256;2022-07-23T03:13:17;94687.97;;;20.79;58.96
6128;BME280;7073;42.672;23.256;2022-07-23T03:15:44;94696.69;;;20.85;61.35
6128;BME280;7073;42.672;23.256;2022-07-23T03:18:11;94694.69;;;20.26;60.79
6128;BME280;7073;42.672;23.256;2022-07-23T03:20:38;94697.59;;;20.40;61.84
6128;BME280;7073;42.672;23.256;2022-07-23T03:23:06;94699.69;;;20.43;62.53
6128;BME280;7073;42.672;23.256;2022-07-23T03:25:33;94702.88;;;20.45;63.35
6128;BME280;7073;42.672;23.256;2022-07-23T03:28:00;94707.09;;;20.15;65.67
6128;BME280;7073;42.672;23.256;2022-07-23T03:30:26;94706.06;;;20.27;65.64
6128;BME280;7073;42.672;23.256;2022-07-23T03:32:53;94709.75;;;20.10;66.40
6128;BME280;7073;42.672;23.256;2022-07-23T03:35:20;94700.75;;;20.17;66.13
6128;BME280;7073;42.672;23.256;2022-07-23T03:37:47;94712.94;;;20.23;66.29
6128;BME280;7073;42.672;23.256;2022-07-23T03:40:15;94707.66;;;20.38;66.40
6128;BME280;7073;42.672;23.256;2022-07-23T03:42:42;94715.06;;;20.41;66.36
6128;BME280;7073;42.672;23.256;2022-07-23T03:45:11;94710.81;;;20.40;66.21
6128;BME280;7073;42.672;23.256;2022-07-23T03:47:38;94716.41;;;20.38;66.45
6128;BME280;7073;42.672;23.256;2022-07-23T03:50:06;94717.44;;;20.37;66.62
6128;BME280;7073;42.672;23.256;2022-07-23T03:52:33;94707.91;;;20.46;65.74
6128;BME280;7073;42.672;23.256;2022-07-23T03:55:00;94714.50;;;20.59;65.07
6128;BME280;7073;42.672;23.256;2022-07-23T03:57:28;94713.44;;;20.70;64.45
6128;BME280;7073;42.672;23.256;2022-07-23T03:59:55;94724.53;;;20.72;63.90
6128;BME280;7073;42.672;23.256;2022-07-23T04:02:22;94708.13;;;20.75;63.63
6128;BME280;7073;42.672;23.256;2022-07-23T04:04:49;94715.56;;;20.53;64.25
6128;BME280;7073;42.672;23.256;2022-07-23T04:07:16;94709.78;;;20.41;64.05
6128;BME280;7073;42.672;23.256;2022-07-23T04:09:44;94714.22;;;20.60;63.43
6128;BME280;7073;42.672;23.256;2022-07-23T04:12:11;94715.75;;;20.87;62.21
6128;BME280;7073;42.672;23.256;2022-07-23T04:14:39;94712.81;;;20.98;62.89
6128;BME280;7073;42.672;23.256;2022-07-23T04:17:06;94712.00;;;21.08;62.38
6128;BME280;7073;42.672;23.256;2022-07-23T04:19:33;94719.38;;;21.16;60.84
6128;BME280;7073;42.672;23.256;2022-07-23T04:22:01;94722.44;;;21.43;60.44
6128;BME280;7073;42.672;23.256;2022-07-23T04:24:28;94729.47;;;21.63;60.48
6128;BME280;7073;42.672;23.256;2022-07-23T04:26:55;94736.97;;;21.56;60.84
6128;BME280;7073;42.672;23.256;2022-07-23T04:29:22;94730.56;;;21.62;60.55
6128;BME280;7073;42.672;23.256;2022-07-23T04:31:50;94737.97;;;21.65;61.23
6128;BME280;7073;42.672;23.256;2022-07-23T04:34:17;94726.50;;;21.74;60.40
6128;BME280;7073;42.672;23.256;2022-07-23T04:36:44;94724.06;;;21.83;60.26
6128;BME280;7073;42.672;23.256;2022-07-23T04:39:11;94733.03;;;21.92;59.70
6128;BME280;7073;42.672;23.256;2022-07-23T04:41:38;94733.47;;;22.09;59.75
6128;BME280;7073;42.672;23.256;2022-07-23T04:44:04;94737.19;;;22.08;59.48
6128;BME280;7073;42.672;23.256;2022-07-23T04:46:31;94733.75;;;22.03;59.74
6128;BME280;7073;42.672;23.256;2022-07-23T04:49:00;94738.22;;;22.12;59.01
6128;BME280;7073;42.672;23.256;2022-07-23T04:51:26;94741.75;;;22.31;59.06
6128;BME280;7073;42.672;23.256;2022-07-23T04:53:54;94735.84;;;22.39;59.22
6128;BME280;7073;42.672;23.256;2022-07-23T04:56:21;94743.19;;;22.52;58.30
6128;BME280;7073;42.672;23.256;2022-07-23T04:58:48;94747.47;;;22.48;57.99
6128;BME280;7073;42.672;23.256;2022-07-23T05:01:15;94736.34;;;22.46;58.92
6128;BME280;7073;42.672;23.256;2022-07-23T05:03:42;94743.59;;;22.70;57.91
6128;BME280;7073;42.672;23.256;2022-07-23T05:06:10;94735.16;;;22.58;59.40
6128;BME280;7073;42.672;23.256;2022-07-23T05:08:37;94724.06;;;22.22;59.36
6128;BME280;7073;42.672;23.256;2022-07-23T05:11:04;94726.53;;;22.42;59.16
6128;BME280;7073;42.672;23.256;2022-07-23T05:13:31;94735.50;;;22.80;58.53
6128;BME280;7073;42.672;23.256;2022-07-23T05:15:57;94738.69;;;22.82;58.69
6128;BME280;7073;42.672;23.256;2022-07-23T05:18:24;94742.38;;;23.33;57.75
6128;BME280;7073;42.672;23.256;2022-07-23T05:20:51;94744.84;;;23.01;57.07
6128;BME280;7073;42.672;23.256;2022-07-23T05:23:19;94750.84;;;23.11;58.47
6128;BME280;7073;42.672;23.256;2022-07-23T05:25:46;94747.88;;;23.60;56.41
6128;BME280;7073;42.672;23.256;2022-07-23T05:28:13;94747.16;;;23.31;57.64
6128;BME280;7073;42.672;23.256;2022-07-23T05:30:40;94748.53;;;23.90;56.86
6128;BME280;7073;42.672;23.256;2022-07-23T05:33:06;94745.16;;;24.03;55.92
6128;BME280;7073;42.672;23.256;2022-07-23T05:35:33;94745.88;;;24.27;54.75
6128;BME280;7073;42.672;23.256;2022-07-23T05:38:00;94745.94;;;23.66;56.23
6128;BME280;7073;42.672;23.256;2022-07-23T05:40:28;94749.75;;;23.79;54.74
6128;BME280;7073;42.672;23.256;2022-07-23T05:42:55;94750.16;;;24.28;53.87
6128;BME280;7073;42.672;23.256;2022-07-23T05:45:22;94749.34;;;23.71;54.32
6128;BME280;7073;42.672;23.256;2022-07-23T05:47:50;94750.31;;;24.18;54.39
6128;BME280;7073;42.672;23.256;2022-07-23T05:50:16;94748.69;;;24.36;53.11
6128;BME280;7073;42.672;23.256;2022-07-23T05:52:44;94748.19;;;23.78;54.35
6128;BME280;7073;42.672;23.256;2022-07-23T05:55:11;94749.66;;;23.89;54.45
6128;BME280;7073;42.672;23.256;2022-07-23T05:57:40;94750.41;;;24.08;53.78
6128;BME280;7073;42.672;23.256;2022-07-23T06:00:08;94749.06;;;24.10;53.85
6128;BME280;7073;42.672;23.256;2022-07-23T06:02:37;94741.22;;;24.51;53.47
6128;BME280;7073;42.672;23.256;2022-07-23T06:05:04;94737.38;;;24.89;53.17
6128;BME280;7073;42.672;23.256;2022-07-23T06:07:33;94742.16;;;25.20;52.57
6128;BME280;7073;42.672;23.256;2022-07-23T06:09:59;94746.28;;;25.53;50.76
6128;BME280;7073;42.672;23.256;2022-07-23T06:12:26;94750.78;;;25.93;50.28
6128;BME280;7073;42.672;23.256;2022-07-23T06:14:54;94744.28;;;26.22;49.17
6128;BME280;7073;42.672;23.256;2022-07-23T06:17:22;94745.56;;;26.10;50.67
6128;BME280;7073;42.672;23.256;2022-07-23T06:19:48;94745.41;;;26.29;49.87
6128;BME280;7073;42.672;23.256;2022-07-23T06:22:15;94740.22;;;26.10;49.63
6128;BME280;7073;42.672;23.256;2022-07-23T06:24:42;94744.03;;;26.32;49.85
6128;BME280;7073;42.672;23.256;2022-07-23T06:27:09;94749.41;;;26.85;48.27
6128;BME280;7073;42.672;23.256;2022-07-23T06:29:36;94745.06;;;26.89;47.30
6128;BME280;7073;42.672;23.256;2022-07-23T06:32:05;94743.50;;;27.36;47.18
6128;BME280;7073;42.672;23.256;2022-07-23T06:34:31;94738.50;;;27.43;46.87
6128;BME280;7073;42.672;23.256;2022-07-23T06:36:58;94749.63;;;26.08;48.73
6128;BME280;7073;42.672;23.256;2022-07-23T06:39:25;94751.56;;;26.52;48.28
6128;BME280;7073;42.672;23.256;2022-07-23T06:41:53;94750.75;;;26.96;46.24
6128;BME280;7073;42.672;23.256;2022-07-23T06:44:20;94749.13;;;26.64;46.87
6128;BME280;7073;42.672;23.256;2022-07-23T06:46:46;94744.28;;;26.44;46.22
6128;BME280;7073;42.672;23.256;2022-07-23T06:49:14;94744.72;;;26.90;46.39
6128;BME280;7073;42.672;23.256;2022-07-23T06:51:41;94744.66;;;26.29;46.75
6128;BME280;7073;42.672;23.256;2022-07-23T06:54:08;94750.22;;;26.85;47.13
6128;BME280;7073;42.672;23.256;2022-07-23T06:56:35;94738.28;;;26.91;46.04
6128;BME280;7073;42.672;23.256;2022-07-23T06:59:02;94735.75;;;26.86;45.84
6128;BME280;7073;42.672;23.256;2022-07-23T07:01:29;94739.06;;;27.22;46.48
6128;BME280;7073;42.672;23.256;2022-07-23T07:03:56;94733.50;;;27.50;45.97
6128;BME280;7073;42.672;23.256;2022-07-23T07:06:24;94741.47;;;28.06;44.90
6128;BME280;7073;42.672;23.256;2022-07-23T07:08:51;94741.97;;;28.25;44.52
6128;BME280;7073;42.672;23.256;2022-07-23T07:11:18;94731.69;;;28.19;44.47
6128;BME280;7073;42.672;23.256;2022-07-23T07:13:45;94741.03;;;28.13;44.70
6128;BME280;7073;42.672;23.256;2022-07-23T07:16:11;94731.06;;;28.30;44.84
6128;BME280;7073;42.672;23.256;2022-07-23T07:18:38;94732.78;;;28.43;44.28
6128;BME280;7073;42.672;23.256;2022-07-23T07:21:05;94729.13;;;28.74;43.20
6128;BME280;7073;42.672;23.256;2022-07-23T07:23:33;94733.84;;;28.85;43.06
6128;BME280;7073;42.672;23.256;2022-07-23T07:26:00;94726.06;;;29.01;43.24
6128;BME280;7073;42.672;23.256;2022-07-23T07:28:27;94728.34;;;29.28;43.09
6128;BME280;7073;42.672;23.256;2022-07-23T07:30:54;94714.22;;;29.02;41.81
6128;BME280;7073;42.672;23.256;2022-07-23T07:33:21;94725.50;;;29.25;41.81
6128;BME280;7073;42.672;23.256;2022-07-23T07:35:48;94718.03;;;28.92;42.29
6128;BME280;7073;42.672;23.256;2022-07-23T07:38:14;94682.84;;;28.85;41.89
6128;BME280;7073;42.672;23.256;2022-07-23T07:40:43;94725.22;;;28.37;42.08
6128;BME280;7073;42.672;23.256;2022-07-23T07:43:09;94710.56;;;28.09;43.00
6128;BME280;7073;42.672;23.256;2022-07-23T07:45:36;94722.03;;;29.24;41.31
6128;BME280;7073;42.672;23.256;2022-07-23T07:48:04;94724.84;;;29.36;42.49
6128;BME280;7073;42.672;23.256;2022-07-23T07:50:31;94720.34;;;29.49;41.76
6128;BME280;7073;42.672;23.256;2022-07-23T07:52:58;94721.22;;;28.86;42.09
6128;BME280;7073;42.672;23.256;2022-07-23T07:55:24;94714.88;;;29.37;42.42
6128;BME280;7073;42.672;23.256;2022-07-23T07:57:53;94713.72;;;29.96;40.06
6128;BME280;7073;42.672;23.256;2022-07-23T08:00:20;94714.47;;;30.05;39.49
6128;BME280;7073;42.672;23.256;2022-07-23T08:02:48;94712.22;;;29.87;40.48
6128;BME280;7073;42.672;23.256;2022-07-23T08:05:18;94718.78;;;30.39;39.24
6128;BME280;7073;42.672;23.256;2022-07-23T08:07:46;94720.22;;;30.16;39.54
6128;BME280;7073;42.672;23.256;2022-07-23T08:10:13;94714.09;;;30.48;40.13
6128;BME280;7073;42.672;23.256;2022-07-23T08:12:42;94708.13;;;30.63;40.06
6128;BME280;7073;42.672;23.256;2022-07-23T08:15:12;94709.28;;;30.54;39.47
6128;BME280;7073;42.672;23.256;2022-07-23T08:17:39;94711.78;;;30.59;39.81
6128;BME280;7073;42.672;23.256;2022-07-23T08:20:08;94711.91;;;31.07;38.79
6128;BME280;7073;42.672;23.256;2022-07-23T08:22:42;94712.59;;;31.04;38.24
6128;BME280;7073;42.672;23.256;2022-07-23T08:25:09;94707.00;;;31.21;38.07
6128;BME280;7073;42.672;23.256;2022-07-23T08:27:36;94711.13;;;31.19;39.35
6128;BME280;7073;42.672;23.256;2022-07-23T08:30:04;94710.81;;;31.20;38.40
6128;BME280;7073;42.672;23.256;2022-07-23T08:32:33;94698.44;;;31.19;37.50
6128;BME280;7073;42.672;23.256;2022-07-23T08:34:59;94704.06;;;31.75;36.86
6128;BME280;7073;42.672;23.256;2022-07-23T08:37:26;94712.50;;;31.49;37.22
6128;BME280;7073;42.672;23.256;2022-07-23T08:39:53;94705.13;;;31.58;37.31
6128;BME280;7073;42.672;23.256;2022-07-23T08:42:21;94709.56;;;31.78;37.75
6128;BME280;7073;42.672;23.256;2022-07-23T08:44:48;94703.22;;;31.98;36.78
6128;BME280;7073;42.672;23.256;2022-07-23T08:47:15;94700.88;;;31.85;36.94
6128;BME280;7073;42.672;23.256;2022-07-23T08:49:45;94700.53;;;32.11;36.89
6128;BME280;7073;42.672;23.256;2022-07-23T08:52:13;94697.75;;;31.83;37.54
6128;BME280;7073;42.672;23.256;2022-07-23T08:54:41;94698.91;;;32.22;36.11
6128;BME280;7073;42.672;23.256;2022-07-23T08:57:08;94696.47;;;32.44;36.96
6128;BME280;7073;42.672;23.256;2022-07-23T08:59:34;94690.72;;;32.74;35.91
6128;BME280;7073;42.672;23.256;2022-07-23T09:02:01;94690.88;;;32.65;36.27
6128;BME280;7073;42.672;23.256;2022-07-23T09:04:28;94692.63;;;32.73;35.45
6128;BME280;7073;42.672;23.256;2022-07-23T09:06:56;94700.94;;;33.11;35.02
6128;BME280;7073;42.672;23.256;2022-07-23T09:09:23;94671.13;;;32.92;35.66
6128;BME280;7073;42.672;23.256;2022-07-23T09:12:02;94689.78;;;33.44;35.66
6128;BME280;7073;42.672;23.256;2022-07-23T09:14:37;94700.31;;;32.71;34.54
6128;BME280;7073;42.672;23.256;2022-07-23T09:17:11;94691.53;;;33.37;34.03
6128;BME280;7073;42.672;23.256;2022-07-23T09:19:38;94696.84;;;33.64;34.24
6128;BME280;7073;42.672;23.256;2022-07-23T09:22:23;94695.06;;;33.72;33.21
6128;BME280;7073;42.672;23.256;2022-07-23T09:25:09;94693.09;;;33.88;32.87
6128;BME280;7073;42.672;23.256;2022-07-23T09:27:53;94692.63;;;34.56;32.00
6128;BME280;7073;42.672;23.256;2022-07-23T09:30:21;94701.13;;;34.38;30.33
6128;BME280;7073;42.672;23.256;2022-07-23T09:33:04;94688.44;;;33.54;31.09
6128;BME280;7073;42.672;23.256;2022-07-23T09:35:45;94695.00;;;34.22;31.37
6128;BME280;7073;42.672;23.256;2022-07-23T09:38:14;94692.44;;;34.68;30.98
6128;BME280;7073;42.672;23.256;2022-07-23T09:40:41;94680.41;;;34.65;31.46
6128;BME280;7073;42.672;23.256;2022-07-23T09:43:08;94679.88;;;35.01;31.78
6128;BME280;7073;42.672;23.256;2022-07-23T09:45:35;94682.69;;;35.05;28.43
6128;BME280;7073;42.672;23.256;2022-07-23T09:48:12;94677.13;;;35.21;29.48
6128;BME280;7073;42.672;23.256;2022-07-23T09:50:39;94680.88;;;34.90;28.34
6128;BME280;7073;42.672;23.256;2022-07-23T09:53:06;94682.28;;;34.84;28.47
6128;BME280;7073;42.672;23.256;2022-07-23T09:55:35;94678.38;;;35.04;28.36
6128;BME280;7073;42.672;23.256;2022-07-23T09:58:04;94678.16;;;34.90;28.15
6128;BME280;7073;42.672;23.256;2022-07-23T10:00:32;94674.66;;;35.35;28.52
6128;BME280;7073;42.672;23.256;2022-07-23T10:02:59;94670.22;;;35.49;27.59
6128;BME280;7073;42.672;23.256;2022-07-23T10:05:27;94665.78;;;35.60;28.30
6128;BME280;7073;42.672;23.256;2022-07-23T10:07:55;94670.94;;;35.20;26.57
6128;BME280;7073;42.672;23.256;2022-07-23T10:10:22;94663.13;;;35.41;28.67
6128;BME280;7073;42.672;23.256;2022-07-23T10:12:55;94654.19;;;35.64;27.54
6128;BME280;7073;42.672;23.256;2022-07-23T10:15:36;94660.19;;;35.76;25.62
6128;BME280;7073;42.672;23.256;2022-07-23T10:18:03;94658.44;;;36.50;25.97
6128;BME280;7073;42.672;23.256;2022-07-23T10:20:29;94654.22;;;36.56;25.50
6128;BME280;7073;42.672;23.256;2022-07-23T10:23:02;94653.06;;;36.24;24.45
6128;BME280;7073;42.672;23.256;2022-07-23T10:25:36;94662.06;;;36.32;24.63
6128;BME280;7073;42.672;23.256;2022-07-23T10:28:21;94644.47;;;36.52;24.16
6128;BME280;7073;42.672;23.256;2022-07-23T10:31:02;94650.97;;;36.80;23.71
6128;BME280;7073;42.672;23.256;2022-07-23T10:33:37;94651.97;;;37.02;23.35
6128;BME280;7073;42.672;23.256;2022-07-23T10:36:09;94650.13;;;36.73;22.95
6128;BME280;7073;42.672;23.256;2022-07-23T10:38:49;94649.50;;;36.90;22.52
6128;BME280;7073;42.672;23.256;2022-07-23T10:41:30;94645.16;;;37.26;22.57
6128;BME280;7073;42.672;23.256;2022-07-23T10:44:07;94645.47;;;36.07;22.56
6128;BME280;7073;42.672;23.256;2022-07-23T10:46:34;94639.69;;;36.78;22.16
6128;BME280;7073;42.672;23.256;2022-07-23T10:49:23;94630.00;;;36.81;23.96
6128;BME280;7073;42.672;23.256;2022-07-23T10:52:16;94634.88;;;37.02;22.23
6128;BME280;7073;42.672;23.256;2022-07-23T10:54:45;94630.84;;;37.87;21.57
6128;BME280;7073;42.672;23.256;2022-07-23T10:57:14;94629.25;;;37.82;19.63
6128;BME280;7073;42.672;23.256;2022-07-23T11:00:17;94625.09;;;38.06;21.16
6128;BME280;7073;42.672;23.256;2022-07-23T11:02:47;94620.63;;;38.63;21.20
6128;BME280;7073;42.672;23.256;2022-07-23T11:05:16;94616.88;;;37.34;21.59
6128;BME280;7073;42.672;23.256;2022-07-23T11:08:15;94617.28;;;38.05;19.96
6128;BME280;7073;42.672;23.256;2022-07-23T11:10:49;94623.16;;;38.17;20.15
6128;BME280;7073;42.672;23.256;2022-07-23T11:13:32;94612.00;;;38.43;20.51
6128;BME280;7073;42.672;23.256;2022-07-23T11:19:08;94605.44;;;38.59;20.73
6128;BME280;7073;42.672;23.256;2022-07-23T11:21:42;94605.44;;;38.59;19.30
6128;BME280;7073;42.672;23.256;2022-07-23T11:24:10;94595.34;;;39.08;19.82
6128;BME280;7073;42.672;23.256;2022-07-23T11:26:48;94600.81;;;38.84;18.45
6128;BME280;7073;42.672;23.256;2022-07-23T11:29:37;94593.78;;;38.72;18.99
6128;BME280;7073;42.672;23.256;2022-07-23T11:32:07;94594.50;;;38.55;18.63
6128;BME280;7073;42.672;23.256;2022-07-23T11:34:36;94603.81;;;38.36;17.83
6128;BME280;7073;42.672;23.256;2022-07-23T11:37:07;94593.00;;;38.72;17.10
6128;BME280;7073;42.672;23.256;2022-07-23T11:39:34;94589.50;;;38.89;17.94
6128;BME280;7073;42.672;23.256;2022-07-23T11:42:03;94586.75;;;39.06;17.86
6128;BME280;7073;42.672;23.256;2022-07-23T11:44:33;94594.56;;;38.76;16.83
6128;BME280;7073;42.672;23.256;2022-07-23T11:47:02;94576.22;;;38.70;17.68
6128;BME280;7073;42.672;23.256;2022-07-23T11:49:30;94573.91;;;38.61;17.06
6128;BME280;7073;42.672;23.256;2022-07-23T11:52:04;94576.19;;;38.38;17.20
6128;BME280;7073;42.672;23.256;2022-07-23T11:54:31;94574.09;;;38.00;16.98
6128;BME280;7073;42.672;23.256;2022-07-23T11:56:59;94577.28;;;38.19;17.51
6128;BME280;7073;42.672;23.256;2022-07-23T11:59:28;94563.00;;;38.61;18.08
6128;BME280;7073;42.672;23.256;2022-07-23T12:01:56;94569.25;;;39.00;16.71
6128;BME280;7073;42.672;23.256;2022-07-23T12:04:25;94575.09;;;39.02;16.01
6128;BME280;7073;42.672;23.256;2022-07-23T12:06:53;94563.00;;;39.07;16.59
6128;BME280;7073;42.672;23.256;2022-07-23T12:09:20;94575.50;;;38.97;15.86
6128;BME280;7073;42.672;23.256;2022-07-23T12:12:05;94557.94;;;39.37;17.52
6128;BME280;7073;42.672;23.256;2022-07-23T12:14:32;94558.34;;;38.90;17.12
6128;BME280;7073;42.672;23.256;2022-07-23T12:17:09;94551.34;;;38.85;18.44
6128;BME280;7073;42.672;23.256;2022-07-23T12:19:35;94553.25;;;38.64;16.71
6128;BME280;7073;42.672;23.256;2022-07-23T12:22:04;94548.22;;;39.08;16.59
6128;BME280;7073;42.672;23.256;2022-07-23T12:24:31;94538.47;;;39.32;18.14
6128;BME280;7073;42.672;23.256;2022-07-23T12:27:10;94536.50;;;39.29;17.70
6128;BME280;7073;42.672;23.256;2022-07-23T12:29:37;94536.09;;;39.34;18.39
6128;BME280;7073;42.672;23.256;2022-07-23T12:32:17;94532.91;;;39.60;17.85
6128;BME280;7073;42.672;23.256;2022-07-23T12:34:44;94535.75;;;39.10;17.30
6128;BME280;7073;42.672;23.256;2022-07-23T12:37:26;94535.50;;;39.99;17.22
6128;BME280;7073;42.672;23.256;2022-07-23T12:39:53;94526.59;;;39.88;16.84
6128;BME280;7073;42.672;23.256;2022-07-23T12:42:20;94515.94;;;40.14;17.41
6128;BME280;7073;42.672;23.256;2022-07-23T12:45:06;94521.81;;;40.02;16.15
6128;BME280;7073;42.672;23.256;2022-07-23T12:50:44;94518.44;;;40.46;16.57
6128;BME280;7073;42.672;23.256;2022-07-23T12:53:17;94515.28;;;39.86;17.33
6128;BME280;7073;42.672;23.256;2022-07-23T12:55:45;94525.75;;;40.01;16.88
6128;BME280;7073;42.672;23.256;2022-07-23T12:58:14;94521.56;;;39.76;16.95
6128;BME280;7073;42.672;23.256;2022-07-23T13:01:00;94505.97;;;40.45;16.45
6128;BME280;7073;42.672;23.256;2022-07-23T13:03:30;94508.00;;;40.30;15.95
6128;BME280;7073;42.672;23.256;2022-07-23T13:05:58;94513.28;;;39.97;16.86
6128;BME280;7073;42.672;23.256;2022-07-23T13:08:28;94513.81;;;39.63;17.02
6128;BME280;7073;42.672;23.256;2022-07-23T13:10:56;94511.38;;;39.83;16.88
6128;BME280;7073;42.672;23.256;2022-07-23T13:13:24;94509.44;;;39.84;16.09
6128;BME280;7073;42.672;23.256;2022-07-23T13:15:52;94513.97;;;38.79;17.33
6128;BME280;7073;42.672;23.256;2022-07-23T13:18:19;94509.28;;;38.86;17.01
6128;BME280;7073;42.672;23.256;2022-07-23T13:20:47;94504.44;;;39.64;16.83
6128;BME280;7073;42.672;23.256;2022-07-23T13:23:15;94500.81;;;39.92;17.28
6128;BME280;7073;42.672;23.256;2022-07-23T13:25:44;94510.31;;;39.56;16.41